createdAt,value
2019-03-22T00:00:38.738Z,8.17
2019-03-22T00:03:07.043Z,10.97
2019-03-22T00:05:35.319Z,12.50
2019-03-22T00:08:03.674Z,14.83
2019-03-22T00:10:31.965Z,13.03
2019-03-22T00:13:00.509Z,9.93
2019-03-22T00:15:28.818Z,11.53
2019-03-22T00:17:57.097Z,8.20
2019-03-22T00:20:25.389Z,12.10
2019-03-22T00:22:53.673Z,15.70
2019-03-22T00:25:21.968Z,12.73
2019-03-22T00:27:50.598Z,9.90
2019-03-22T00:30:18.883Z,11.60
2019-03-22T00:32:47.157Z,12.77
2019-03-22T00:35:15.516Z,9.27
2019-03-22T00:37:43.792Z,8.47
2019-03-22T00:40:12.883Z,12.47
2019-03-22T00:42:41.159Z,9.23
2019-03-22T00:45:10.698Z,10.67
2019-03-22T00:47:39.250Z,14.00
2019-03-22T00:50:10.704Z,15.57
2019-03-22T00:52:39.056Z,14.47
2019-03-22T00:55:07.815Z,8.77
2019-03-22T00:57:36.278Z,14.77
2019-03-22T01:00:09.436Z,9.33
2019-03-22T01:02:37.737Z,10.23
2019-03-22T01:05:08.049Z,10.93
2019-03-22T01:07:36.344Z,8.63
2019-03-22T01:10:10.034Z,9.77
2019-03-22T01:12:38.330Z,7.57
2019-03-22T01:15:09.215Z,9.53
2019-03-22T01:17:37.511Z,9.33
2019-03-22T01:20:08.090Z,8.10
2019-03-22T01:22:36.382Z,6.93
2019-03-22T01:25:08.513Z,7.43
2019-03-22T01:27:40.680Z,7.50
2019-03-22T01:30:09.912Z,9.37
2019-03-22T01:32:38.208Z,8.53
2019-03-22T01:35:07.431Z,12.23
2019-03-22T01:37:36.017Z,11.10
2019-03-22T01:40:07.213Z,11.50
2019-03-22T01:42:35.941Z,13.13
2019-03-22T01:45:07.879Z,9.73
2019-03-22T01:47:36.242Z,11.90
2019-03-22T01:50:10.936Z,10.33
2019-03-22T01:52:39.306Z,10.87
2019-03-22T01:55:08.329Z,11.37
2019-03-22T01:57:36.621Z,15.53
2019-03-22T02:00:07.714Z,9.83
2019-03-22T02:02:36.080Z,10.80
2019-03-22T02:05:06.337Z,11.87
2019-03-22T02:07:35.010Z,10.77
2019-03-22T02:10:04.939Z,10.07
2019-03-22T02:12:33.206Z,8.33
2019-03-22T02:15:01.501Z,9.03
2019-03-22T02:17:30.059Z,10.53
2019-03-22T02:19:58.353Z,8.80
2019-03-22T02:22:26.904Z,9.70
2019-03-22T02:24:55.485Z,11.93
2019-03-22T02:27:23.765Z,11.37
2019-03-22T02:29:52.061Z,8.83
2019-03-22T02:32:20.623Z,9.83
2019-03-22T02:34:48.930Z,12.63
2019-03-22T02:37:17.200Z,10.23
2019-03-22T02:39:46.173Z,15.33
2019-03-22T02:42:15.085Z,12.67
2019-03-22T02:44:43.382Z,12.27
2019-03-22T02:47:11.920Z,11.33
2019-03-22T02:49:40.220Z,12.53
2019-03-22T02:52:08.528Z,12.97
2019-03-22T02:54:36.787Z,9.67
2019-03-22T02:57:19.529Z,7.73
2019-03-22T02:59:48.150Z,9.40
2019-03-22T03:02:16.749Z,9.23
2019-03-22T03:04:45.137Z,9.07
2019-03-22T03:07:13.408Z,10.47
2019-03-22T03:09:41.692Z,8.57
2019-03-22T03:12:09.973Z,10.00
2019-03-22T03:14:38.264Z,10.27
2019-03-22T03:17:06.535Z,9.03
2019-03-22T03:19:34.912Z,8.80
2019-03-22T03:22:03.186Z,9.63
2019-03-22T03:24:31.475Z,11.43
2019-03-22T03:26:59.748Z,10.77
2019-03-22T03:29:28.046Z,9.40
2019-03-22T03:31:56.323Z,9.13
2019-03-22T03:34:24.607Z,11.70
2019-03-22T03:36:52.902Z,10.37
2019-03-22T03:39:21.183Z,7.93
2019-03-22T03:41:49.470Z,10.67
2019-03-22T03:44:17.825Z,8.37
2019-03-22T03:46:46.118Z,7.97
2019-03-22T03:49:14.391Z,10.13
2019-03-22T03:51:42.680Z,10.13
2019-03-22T03:54:10.969Z,11.53
2019-03-22T03:56:39.246Z,11.50
2019-03-22T03:59:07.524Z,7.70
2019-03-22T04:01:35.822Z,9.93
2019-03-22T04:04:04.387Z,9.60
2019-03-22T04:06:32.678Z,7.70
2019-03-22T04:09:00.969Z,8.83
2019-03-22T04:11:29.254Z,10.27
2019-03-22T04:13:57.529Z,7.10
2019-03-22T04:16:25.822Z,9.77
2019-03-22T04:18:54.536Z,7.37
2019-03-22T04:21:23.117Z,9.50
2019-03-22T04:23:51.397Z,9.30
2019-03-22T04:26:19.681Z,13.07
2019-03-22T04:28:47.956Z,12.07
2019-03-22T04:31:16.542Z,7.97
2019-03-22T04:33:44.822Z,9.37
2019-03-22T04:36:13.113Z,9.43
2019-03-22T04:38:41.773Z,8.13
2019-03-22T04:41:10.557Z,8.73
2019-03-22T04:43:38.841Z,10.17
2019-03-22T04:46:07.510Z,11.27
2019-03-22T04:48:37.471Z,15.13
2019-03-22T04:51:06.133Z,7.80
2019-03-22T04:53:38.304Z,8.77
2019-03-22T04:56:09.516Z,10.37
2019-03-22T04:58:39.708Z,10.10
2019-03-22T05:01:08.851Z,8.67
2019-03-22T05:03:37.811Z,8.00
2019-03-22T05:06:06.364Z,13.13
2019-03-22T05:08:36.466Z,7.73
2019-03-22T05:11:05.954Z,8.93
2019-03-22T05:13:36.380Z,9.97
2019-03-22T05:16:05.430Z,11.03
2019-03-22T05:18:34.198Z,10.67
2019-03-22T05:21:02.712Z,9.63
2019-03-22T05:23:31.272Z,7.97
2019-03-22T05:26:00.619Z,8.03
2019-03-22T05:28:30.029Z,8.20
2019-03-22T05:31:10.512Z,10.37
2019-03-22T05:33:38.807Z,9.60
2019-03-22T05:36:07.356Z,10.20
2019-03-22T05:38:35.937Z,11.57
2019-03-22T05:41:04.218Z,10.73
2019-03-22T05:43:32.516Z,11.17
2019-03-22T05:46:01.077Z,10.97
2019-03-22T05:48:29.387Z,15.90
2019-03-22T05:50:57.653Z,8.63
2019-03-22T05:53:25.938Z,9.93
2019-03-22T05:55:54.210Z,10.17
2019-03-22T05:58:22.505Z,13.43
2019-03-22T06:00:50.786Z,11.67
2019-03-22T06:03:19.078Z,10.83
2019-03-22T06:05:47.353Z,9.43
2019-03-22T06:08:15.640Z,13.90
2019-03-22T06:10:43.943Z,14.87
2019-03-22T06:13:12.222Z,13.90
2019-03-22T06:15:41.583Z,12.30
2019-03-22T06:18:09.868Z,11.80
2019-03-22T06:20:38.169Z,13.37
2019-03-22T06:23:06.455Z,15.13
2019-03-22T06:25:34.825Z,14.13
2019-03-22T06:28:03.467Z,14.53
2019-03-22T06:30:31.705Z,12.63
2019-03-22T06:32:59.984Z,10.67
2019-03-22T06:35:28.285Z,12.17
2019-03-22T06:37:56.569Z,13.87
2019-03-22T06:40:24.861Z,12.03
2019-03-22T06:42:53.147Z,14.90
2019-03-22T06:45:21.442Z,11.27
2019-03-22T06:47:49.727Z,10.93
2019-03-22T06:50:18.026Z,13.87
2019-03-22T06:52:46.302Z,11.10
2019-03-22T06:55:14.869Z,12.30
2019-03-22T06:57:43.179Z,11.53
2019-03-22T07:00:12.912Z,12.17
2019-03-22T07:02:41.444Z,13.67
2019-03-22T07:05:10.022Z,10.30
2019-03-22T07:07:38.323Z,12.20
2019-03-22T07:10:07.442Z,11.83
2019-03-22T07:12:36.083Z,11.50
2019-03-22T07:15:06.049Z,11.90
2019-03-22T07:17:34.341Z,12.70
2019-03-22T07:20:02.756Z,13.03
2019-03-22T07:22:31.053Z,8.57
2019-03-22T07:24:59.606Z,11.20
2019-03-22T07:27:27.911Z,12.93
2019-03-22T07:29:56.189Z,14.10
2019-03-22T07:32:24.489Z,12.40
2019-03-22T07:34:52.763Z,9.63
2019-03-22T07:37:21.057Z,9.23
2019-03-22T07:39:49.688Z,10.73
2019-03-22T07:42:17.980Z,12.77
2019-03-22T07:44:46.257Z,10.07
2019-03-22T07:47:14.616Z,11.43
2019-03-22T07:49:42.966Z,11.20
2019-03-22T07:52:11.267Z,11.77
2019-03-22T07:54:39.545Z,8.90
2019-03-22T07:57:08.356Z,12.20
2019-03-22T07:59:36.647Z,15.07
2019-03-22T08:04:40.616Z,12.83
2019-03-22T08:07:08.897Z,12.30
2019-03-22T08:09:37.565Z,10.57
2019-03-22T08:12:05.829Z,12.23
2019-03-22T08:14:34.123Z,11.57
2019-03-22T08:17:02.480Z,12.77
2019-03-22T08:19:31.351Z,11.70
2019-03-22T08:22:00.024Z,12.80
2019-03-22T08:24:30.549Z,11.40
2019-03-22T08:26:58.845Z,11.50
2019-03-22T08:29:30.281Z,9.47
2019-03-22T08:31:58.568Z,10.67
2019-03-22T08:34:27.156Z,13.33
2019-03-22T08:36:55.431Z,12.00
2019-03-22T08:39:23.752Z,13.17
2019-03-22T08:41:52.013Z,12.23
2019-03-22T08:44:20.315Z,12.77
2019-03-22T08:46:48.857Z,11.77
2019-03-22T08:49:17.292Z,13.93
2019-03-22T08:51:45.610Z,22.20
2019-03-22T08:54:14.007Z,10.87
2019-03-22T08:56:42.249Z,11.17
2019-03-22T08:59:13.351Z,9.90
2019-03-22T09:01:40.885Z,11.33
2019-03-22T09:04:09.453Z,9.20
2019-03-22T09:06:37.759Z,9.73
2019-03-22T09:09:08.337Z,8.43
2019-03-22T09:11:36.769Z,13.93
2019-03-22T09:14:05.146Z,11.27
2019-03-22T09:16:33.488Z,9.80
2019-03-22T09:19:01.810Z,9.87
2019-03-22T09:21:30.133Z,14.10
2019-03-22T09:23:58.414Z,9.27
2019-03-22T09:26:26.991Z,13.90
2019-03-22T09:28:55.274Z,9.57
2019-03-22T09:31:23.857Z,9.33
2019-03-22T09:33:52.359Z,15.57
2019-03-22T09:36:20.662Z,9.53
2019-03-22T09:38:48.999Z,9.33
2019-03-22T09:41:17.272Z,10.67
2019-03-22T09:43:45.608Z,10.77
2019-03-22T09:46:13.941Z,13.17
2019-03-22T09:48:42.224Z,9.47
2019-03-22T09:51:10.573Z,9.80
2019-03-22T09:53:38.805Z,7.07
2019-03-22T09:56:07.139Z,13.50
2019-03-22T09:58:35.380Z,9.57
2019-03-22T10:01:03.715Z,8.13
2019-03-22T10:03:31.966Z,8.57
2019-03-22T10:06:00.284Z,8.53
2019-03-22T10:08:29.016Z,7.80
2019-03-22T10:10:57.313Z,7.67
2019-03-22T10:13:25.609Z,6.70
2019-03-22T10:15:53.912Z,6.83
2019-03-22T10:18:22.531Z,7.73
2019-03-22T10:20:50.820Z,6.10
2019-03-22T10:23:22.322Z,6.33
2019-03-22T10:25:50.292Z,10.73
2019-03-22T10:28:18.594Z,7.60
2019-03-22T10:30:47.191Z,9.50
2019-03-22T10:33:22.535Z,9.93
2019-03-22T10:35:45.561Z,8.77
2019-03-22T10:38:16.327Z,8.33
2019-03-22T10:40:43.867Z,6.47
2019-03-22T10:43:12.177Z,10.67
2019-03-22T10:45:40.491Z,6.90
2019-03-22T10:48:08.759Z,8.00
2019-03-22T10:50:37.041Z,7.30
2019-03-22T10:53:05.415Z,6.67
2019-03-22T10:55:35.598Z,6.43
2019-03-22T10:58:03.726Z,8.33
2019-03-22T11:00:32.071Z,7.97
2019-03-22T11:03:00.374Z,7.27
2019-03-22T11:05:28.660Z,5.50
2019-03-22T11:07:56.943Z,6.53
2019-03-22T11:10:25.330Z,6.90
2019-03-22T11:12:53.687Z,6.03
2019-03-22T11:15:23.905Z,8.47
2019-03-22T11:17:53.942Z,7.70
2019-03-22T11:20:22.247Z,4.20
2019-03-22T11:22:50.783Z,8.03
2019-03-22T11:25:19.351Z,5.57
2019-03-22T11:27:47.634Z,5.60
2019-03-22T11:30:17.782Z,6.40
2019-03-22T11:32:46.220Z,6.77
2019-03-22T11:35:14.863Z,4.50
2019-03-22T11:37:43.218Z,4.67
2019-03-22T11:40:14.359Z,6.20
2019-03-22T11:42:42.811Z,4.10
2019-03-22T11:45:14.118Z,4.87
2019-03-22T11:47:42.399Z,6.50
2019-03-22T11:50:10.944Z,5.43
2019-03-22T11:52:39.301Z,3.53
2019-03-22T11:55:10.207Z,5.03
2019-03-22T11:57:38.492Z,5.60
2019-03-22T12:00:18.717Z,5.90
2019-03-22T12:02:46.995Z,5.57
2019-03-22T12:05:16.101Z,5.77
2019-03-22T12:07:44.797Z,5.80
2019-03-22T12:10:15.658Z,5.80
2019-03-22T12:12:44.912Z,6.50
2019-03-22T12:15:16.489Z,7.30
2019-03-22T12:17:45.068Z,5.50
2019-03-22T12:20:19.387Z,4.30
2019-03-22T12:22:47.659Z,4.47
2019-03-22T12:25:22.081Z,3.70
2019-03-22T12:27:50.368Z,7.47
2019-03-22T12:30:18.045Z,7.80
2019-03-22T12:32:46.437Z,5.10
2019-03-22T12:35:17.025Z,4.87
2019-03-22T12:37:45.563Z,3.53
2019-03-22T12:40:21.108Z,4.33
2019-03-22T12:42:49.504Z,3.97
2019-03-22T12:45:29.439Z,5.27
2019-03-22T12:47:57.848Z,4.37
2019-03-22T12:50:26.200Z,4.80
2019-03-22T12:53:00.195Z,4.63
2019-03-22T12:55:28.483Z,5.97
2019-03-22T12:57:59.368Z,10.33
2019-03-22T13:00:27.392Z,4.17
2019-03-22T13:02:55.891Z,2.97
2019-03-22T13:05:24.334Z,5.07
2019-03-22T13:07:53.062Z,3.27
2019-03-22T13:10:26.511Z,5.00
2019-03-22T13:12:54.804Z,3.73
2019-03-22T13:15:23.144Z,5.50
2019-03-22T13:17:51.728Z,3.43
2019-03-22T13:20:20.412Z,5.97
2019-03-22T13:22:48.711Z,3.20
2019-03-22T13:25:17.829Z,3.13
2019-03-22T13:27:46.123Z,2.60
2019-03-22T13:30:32.463Z,2.60
2019-03-22T13:33:01.058Z,4.00
2019-03-22T13:35:29.337Z,3.93
2019-03-22T13:37:57.632Z,4.67
2019-03-22T13:40:25.919Z,2.67
2019-03-22T13:42:54.286Z,3.17
2019-03-22T13:45:22.852Z,4.37
2019-03-22T13:47:51.143Z,2.47
2019-03-22T13:50:19.492Z,3.43
2019-03-22T13:52:47.788Z,2.43
2019-03-22T13:55:16.068Z,2.90
2019-03-22T13:57:44.367Z,2.27
2019-03-22T14:00:16.930Z,2.50
2019-03-22T14:02:45.302Z,2.50
2019-03-22T14:05:13.969Z,3.83
2019-03-22T14:07:42.852Z,2.83
2019-03-22T14:10:31.137Z,3.77
2019-03-22T14:13:00.662Z,2.53
2019-03-22T14:15:29.019Z,2.20
2019-03-22T14:17:57.937Z,2.00
2019-03-22T14:20:26.244Z,2.00
2019-03-22T14:22:54.527Z,2.67
2019-03-22T14:25:22.831Z,2.30
2019-03-22T14:27:51.136Z,2.10
2019-03-22T14:30:19.500Z,3.17
2019-03-22T14:32:47.779Z,2.10
2019-03-22T14:35:16.148Z,2.67
2019-03-22T14:37:44.702Z,2.20
2019-03-22T14:40:15.797Z,1.90
2019-03-22T14:42:43.315Z,2.03
2019-03-22T14:45:12.059Z,2.77
2019-03-22T14:47:40.344Z,2.10
2019-03-22T14:50:09.476Z,2.67
2019-03-22T14:52:37.769Z,2.83
2019-03-22T14:55:06.542Z,2.03
2019-03-22T14:57:34.832Z,2.27
2019-03-22T15:00:04.218Z,2.00
2019-03-22T15:02:32.486Z,3.23
2019-03-22T15:05:01.069Z,2.63
2019-03-22T15:07:29.658Z,2.43
2019-03-22T15:09:57.994Z,2.87
2019-03-22T15:12:26.291Z,5.80
2019-03-22T15:14:56.286Z,3.40
2019-03-22T15:17:26.200Z,3.13
2019-03-22T15:20:11.923Z,3.13
2019-03-22T15:22:58.019Z,2.83
2019-03-22T15:25:37.559Z,3.37
2019-03-22T15:28:07.485Z,3.17
2019-03-22T15:30:46.137Z,4.30
2019-03-22T15:33:16.065Z,4.03
2019-03-22T15:35:46.010Z,3.60
2019-03-22T15:38:32.462Z,3.50
2019-03-22T15:41:00.921Z,3.70
2019-03-22T15:43:29.490Z,8.03
2019-03-22T15:45:58.173Z,3.63
2019-03-22T15:48:26.853Z,4.07
2019-03-22T15:50:55.152Z,3.13
2019-03-22T15:53:23.439Z,3.07
2019-03-22T15:55:51.722Z,3.73
2019-03-22T15:58:20.015Z,4.50
2019-03-22T16:00:48.291Z,4.17
2019-03-22T16:03:16.863Z,5.80
2019-03-22T16:05:45.468Z,5.27
2019-03-22T16:08:13.766Z,3.93
2019-03-22T16:10:42.082Z,4.53
2019-03-22T16:13:10.645Z,5.13
2019-03-22T16:15:38.932Z,3.50
2019-03-22T16:18:07.482Z,6.83
2019-03-22T16:20:35.764Z,3.90
2019-03-22T16:23:04.201Z,4.20
2019-03-22T16:25:32.511Z,4.87
2019-03-22T16:28:01.129Z,5.23
2019-03-22T16:30:29.479Z,4.03
2019-03-22T16:32:58.089Z,4.17
2019-03-22T16:35:26.669Z,4.17
2019-03-22T16:37:55.227Z,4.83
2019-03-22T16:40:24.439Z,3.33
2019-03-22T16:42:52.900Z,7.93
2019-03-22T16:45:38.535Z,3.73
2019-03-22T16:48:07.232Z,4.93
2019-03-22T16:50:35.593Z,3.63
2019-03-22T16:53:04.074Z,4.40
2019-03-22T16:55:32.379Z,5.03
2019-03-22T16:58:00.655Z,4.10
2019-03-22T17:00:29.266Z,3.30
2019-03-22T17:02:57.595Z,7.87
2019-03-22T17:05:26.153Z,3.87
2019-03-22T17:07:54.517Z,4.17
2019-03-22T17:10:23.621Z,3.97
2019-03-22T17:12:51.935Z,5.30
2019-03-22T17:15:20.236Z,3.20
2019-03-22T17:17:48.531Z,4.80
2019-03-22T17:20:16.901Z,5.43
2019-03-22T17:22:45.184Z,3.17
2019-03-22T17:25:13.558Z,5.83
2019-03-22T17:27:41.847Z,3.50
2019-03-22T17:30:11.272Z,2.90
2019-03-22T17:32:39.602Z,3.27
2019-03-22T17:35:07.964Z,3.20
2019-03-22T17:37:36.250Z,6.00
2019-03-22T17:40:06.734Z,3.57
2019-03-22T17:42:35.023Z,5.50
2019-03-22T17:45:05.115Z,4.33
2019-03-22T17:47:33.394Z,3.17
2019-03-22T17:50:02.014Z,6.27
2019-03-22T17:52:30.268Z,5.97
2019-03-22T17:55:06.516Z,6.97
2019-03-22T17:57:35.044Z,6.00
2019-03-22T18:00:05.620Z,5.77
2019-03-22T18:02:33.895Z,6.77
2019-03-22T18:05:02.194Z,5.50
2019-03-22T18:07:30.732Z,6.33
2019-03-22T18:09:59.019Z,4.63
2019-03-22T18:12:27.314Z,3.90
2019-03-22T18:14:55.598Z,6.57
2019-03-22T18:17:23.888Z,5.43
2019-03-22T18:19:52.175Z,6.13
2019-03-22T18:22:20.739Z,8.17
2019-03-22T18:24:49.296Z,6.60
2019-03-22T18:27:17.578Z,7.10
2019-03-22T18:29:45.864Z,10.47
2019-03-22T18:32:14.169Z,4.60
2019-03-22T18:34:42.462Z,4.93
2019-03-22T18:37:10.757Z,4.97
2019-03-22T18:39:39.048Z,4.33
2019-03-22T18:42:07.348Z,5.47
2019-03-22T18:44:35.630Z,8.93
2019-03-22T18:47:04.190Z,5.73
2019-03-22T18:49:32.476Z,4.70
2019-03-22T18:52:00.774Z,6.03
2019-03-22T18:54:29.061Z,3.97
2019-03-22T18:56:57.355Z,7.37
2019-03-22T18:59:25.649Z,8.10
2019-03-22T19:01:53.950Z,6.57
2019-03-22T19:04:22.275Z,5.60
2019-03-22T19:06:50.533Z,5.10
2019-03-22T19:09:18.818Z,6.67
2019-03-22T19:11:47.122Z,5.13
2019-03-22T19:14:18.214Z,6.37
2019-03-22T19:16:46.754Z,9.63
2019-03-22T19:19:15.042Z,6.63
2019-03-22T19:21:43.588Z,6.10
2019-03-22T19:24:12.118Z,5.33
2019-03-22T19:26:40.412Z,5.03
2019-03-22T19:29:09.146Z,4.63
2019-03-22T19:31:37.428Z,5.97
2019-03-22T19:34:05.810Z,7.17
2019-03-22T19:36:34.104Z,19.63
2019-03-22T19:39:02.404Z,7.33
2019-03-22T19:41:30.692Z,6.67
2019-03-22T19:43:58.991Z,8.43
2019-03-22T19:46:27.263Z,6.93
2019-03-22T19:48:55.572Z,7.83
2019-03-22T19:51:25.841Z,5.27
2019-03-22T19:53:54.147Z,7.10
2019-03-22T19:56:22.460Z,6.30
2019-03-22T19:58:50.759Z,5.00
2019-03-22T20:01:19.050Z,8.70
2019-03-22T20:03:47.685Z,7.27
2019-03-22T20:06:15.967Z,5.53
2019-03-22T20:08:44.269Z,5.67
2019-03-22T20:11:12.550Z,4.97
2019-03-22T20:13:41.079Z,7.80
2019-03-22T20:16:09.726Z,3.50
2019-03-22T20:18:37.996Z,5.90
2019-03-22T20:21:06.547Z,3.77
2019-03-22T20:23:35.135Z,4.60
2019-03-22T20:26:03.830Z,6.33
2019-03-22T20:28:32.336Z,5.37
2019-03-22T20:31:01.017Z,5.30
2019-03-22T20:33:29.296Z,6.60
2019-03-22T20:35:58.518Z,6.57
2019-03-22T20:38:27.106Z,6.40
2019-03-22T20:40:55.347Z,5.47
2019-03-22T20:43:30.544Z,7.33
2019-03-22T20:45:58.839Z,5.13
2019-03-22T20:48:27.128Z,13.30
2019-03-22T20:50:58.167Z,7.67
2019-03-22T20:53:26.452Z,11.10
2019-03-22T20:55:55.096Z,6.27
2019-03-22T20:58:28.695Z,7.83
2019-03-22T21:00:56.992Z,9.23
2019-03-22T21:03:25.270Z,8.47
2019-03-22T21:05:53.588Z,7.03
2019-03-22T21:08:21.857Z,6.03
2019-03-22T21:10:50.168Z,8.10
2019-03-22T21:13:18.456Z,7.73
2019-03-22T21:15:46.834Z,7.03
2019-03-22T21:18:15.123Z,7.27
2019-03-22T21:20:43.419Z,6.60
2019-03-22T21:23:11.991Z,8.33
2019-03-22T21:25:40.290Z,7.23
2019-03-22T21:28:08.940Z,7.47
2019-03-22T21:30:37.244Z,6.97
2019-03-22T21:33:05.532Z,11.60
2019-03-22T21:35:37.611Z,7.57
2019-03-22T21:38:10.756Z,7.23
2019-03-22T21:40:33.843Z,6.83
2019-03-22T21:43:02.137Z,6.47
2019-03-22T21:45:30.441Z,5.43
2019-03-22T21:47:59.011Z,9.23
2019-03-22T21:50:27.301Z,6.47
2019-03-22T21:52:55.900Z,7.13
2019-03-22T21:55:24.187Z,7.30
2019-03-22T21:57:52.492Z,7.37
2019-03-22T22:00:21.038Z,7.13
2019-03-22T22:02:49.367Z,10.23
2019-03-22T22:05:17.649Z,5.57
2019-03-22T22:07:46.018Z,4.73
2019-03-22T22:10:14.372Z,8.80
2019-03-22T22:12:43.041Z,9.27
2019-03-22T22:15:11.855Z,5.43
2019-03-22T22:17:41.197Z,6.23
2019-03-22T22:20:10.324Z,10.97
2019-03-22T22:22:38.697Z,6.23
2019-03-22T22:25:08.432Z,5.83
2019-03-22T22:27:37.089Z,6.13
2019-03-22T22:30:07.575Z,7.90
2019-03-22T22:32:35.875Z,8.07
2019-03-22T22:35:08.441Z,7.23
2019-03-22T22:37:36.807Z,6.40
2019-03-22T22:40:07.297Z,6.37
2019-03-22T22:42:35.591Z,7.00
2019-03-22T22:45:05.724Z,6.37
2019-03-22T22:47:34.037Z,12.80
2019-03-22T22:50:02.963Z,11.77
2019-03-22T22:52:31.243Z,9.97
2019-03-22T22:54:59.555Z,10.20
2019-03-22T22:57:27.918Z,7.90
2019-03-22T22:59:56.563Z,8.23
2019-03-22T23:02:25.149Z,9.30
2019-03-22T23:04:56.479Z,6.97
2019-03-22T23:07:25.082Z,7.07
2019-03-22T23:09:53.392Z,7.17
2019-03-22T23:12:21.927Z,8.93
2019-03-22T23:14:50.230Z,8.77
2019-03-22T23:17:18.807Z,7.60
2019-03-22T23:19:47.111Z,8.90
2019-03-22T23:22:15.379Z,7.53
2019-03-22T23:24:43.937Z,6.63
2019-03-22T23:27:12.539Z,8.17
2019-03-22T23:29:40.872Z,9.13
2019-03-22T23:32:09.147Z,9.43
2019-03-22T23:34:37.429Z,12.33
2019-03-22T23:37:07.239Z,11.87
2019-03-22T23:39:35.684Z,10.80
2019-03-22T23:42:03.960Z,8.97
2019-03-22T23:44:32.246Z,9.20
2019-03-22T23:47:00.559Z,7.57
2019-03-22T23:49:28.845Z,5.87
2019-03-22T23:51:57.138Z,7.33
2019-03-22T23:54:25.420Z,7.67
2019-03-22T23:56:53.713Z,7.33
2019-03-22T23:59:21.996Z,8.20
